Time;durP1;ratioP1;P1;durP2;ratioP2;P2;SDS_P1;SDS_P2;PMS_P1;PMS_P2;Temp;Humidity;BMP_temperature;BMP_pressure;BME280_temperature;BME280_humidity;BME280_pressure;Samples;Min_cycle;Max_cycle;Signal;HPM_P1;HPM_P2
2021/10/14 00:02:23;;;;;;;24.55;1.40;;;;;;;3.42;100.00;96836.28;5055550;28;24907;-75
2021/10/14 00:04:51;;;;;;;8.15;1.20;;;;;;;3.48;100.00;96837.88;5054894;28;24481;-75
2021/10/14 00:07:17;;;;;;;14.40;1.57;;;;;;;3.49;100.00;96840.41;5055217;28;24592;-75
2021/10/14 00:09:43;;;;;;;9.63;1.33;;;;;;;3.50;100.00;96834.41;5055735;28;24516;-75
2021/10/14 00:12:10;;;;;;;4.00;1.53;;;;;;;3.55;100.00;96835.16;5055122;28;24457;-75
2021/10/14 00:14:36;;;;;;;13.70;1.77;;;;;;;3.69;100.00;96839.19;5055176;28;24957;-76
2021/10/14 00:17:03;;;;;;;9.80;1.70;;;;;;;3.58;100.00;96837.69;5055370;28;24530;-75
2021/10/14 00:19:29;;;;;;;15.35;2.20;;;;;;;3.51;100.00;96841.22;5055646;28;24427;-75
2021/10/14 00:21:57;;;;;;;10.25;2.20;;;;;;;3.50;100.00;96844.66;5055890;28;24423;-75
2021/10/14 00:24:24;;;;;;;9.45;1.90;;;;;;;3.42;100.00;96832.88;5055869;28;24836;-75
2021/10/14 00:26:50;;;;;;;4.00;1.90;;;;;;;3.38;100.00;96837.19;5055011;28;24422;-75
2021/10/14 00:29:16;;;;;;;9.15;1.73;;;;;;;3.32;100.00;96839.84;5055149;28;24426;-75
2021/10/14 00:31:43;;;;;;;2.40;1.73;;;;;;;3.34;100.00;96838.97;5055405;28;24415;-75
2021/10/14 00:34:09;;;;;;;78.60;3.03;;;;;;;3.07;100.00;96837.69;5055834;28;25010;-75
2021/10/14 00:36:36;;;;;;;36.03;2.28;;;;;;;3.04;100.00;96832.66;5054958;28;25027;-75
2021/10/14 00:39:04;;;;;;;9.68;1.67;;;;;;;3.19;100.00;96839.22;5055074;28;24485;-75
2021/10/14 00:41:30;;;;;;;2.67;1.17;;;;;;;3.30;100.00;96842.47;5055332;28;24957;-75
2021/10/14 00:43:57;;;;;;;9.38;1.60;;;;;;;3.38;100.00;96842.31;5054906;28;24972;-75
2021/10/14 00:46:23;;;;;;;4.90;1.73;;;;;;;3.37;100.00;96840.59;5054623;28;24941;-75
2021/10/14 00:48:50;;;;;;;2.63;1.45;;;;;;;3.38;100.00;96839.75;5054866;28;24435;-75
2021/10/14 00:51:16;;;;;;;72.05;3.03;;;;;;;3.39;100.00;96834.59;5054620;28;24485;-76
2021/10/14 00:53:44;;;;;;;13.98;1.50;;;;;;;3.44;100.00;96833.66;5054981;28;24427;-75
2021/10/14 00:56:12;;;;;;;17.15;1.83;;;;;;;3.43;100.00;96829.44;5054669;28;24459;-75
2021/10/14 00:58:38;;;;;;;36.17;2.17;;;;;;;3.14;100.00;96828.19;5055438;28;24988;-75
2021/10/14 01:01:06;;;;;;;8.47;1.77;;;;;;;3.43;100.00;96827.72;5055208;28;24481;-75
2021/10/14 01:03:33;;;;;;;19.50;2.00;;;;;;;3.47;100.00;96833.63;5055776;28;24489;-75
2021/10/14 01:06:00;;;;;;;13.80;2.08;;;;;;;3.27;100.00;96828.84;5059059;28;24809;-75
2021/10/14 01:08:27;;;;;;;14.32;1.85;;;;;;;3.18;100.00;96840.06;5059388;28;24946;-75
2021/10/14 01:10:53;;;;;;;16.77;2.38;;;;;;;3.03;100.00;96836.06;5056014;28;25010;-75
2021/10/14 01:13:21;;;;;;;2.83;1.40;;;;;;;3.11;100.00;96829.09;5055246;28;24426;-76
2021/10/14 01:15:48;;;;;;;8.10;1.40;;;;;;;3.03;100.00;96828.38;5054522;28;25003;-75
2021/10/14 01:18:15;;;;;;;9.05;1.40;;;;;;;2.98;100.00;96825.06;5054441;28;24473;-75
2021/10/14 01:20:43;;;;;;;13.32;1.80;;;;;;;2.98;100.00;96831.91;5054849;28;24414;-75
2021/10/14 01:23:10;;;;;;;8.05;1.80;;;;;;;3.02;100.00;96829.25;5055046;28;24453;-75
2021/10/14 01:25:36;;;;;;;21.85;1.98;;;;;;;2.85;100.00;96837.19;5054525;28;24459;-76
2021/10/14 01:28:03;;;;;;;4.88;1.38;;;;;;;2.89;100.00;96832.88;5054665;28;24434;-75
2021/10/14 01:30:29;;;;;;;13.93;2.27;;;;;;;3.05;100.00;96826.66;5054441;28;24832;-75
2021/10/14 01:32:56;;;;;;;6.93;1.90;;;;;;;2.90;100.00;96821.78;5054431;28;24457;-75
2021/10/14 01:35:22;;;;;;;15.88;2.35;;;;;;;2.83;100.00;96818.47;5054286;28;24415;-75
2021/10/14 01:37:50;;;;;;;8.82;1.70;;;;;;;2.84;100.00;96811.63;5055473;28;24427;-75
2021/10/14 01:40:17;;;;;;;12.88;2.08;;;;;;;2.74;100.00;96817.75;5054455;28;24427;-76
2021/10/14 01:42:43;;;;;;;33.03;2.25;;;;;;;2.71;100.00;96805.88;5054523;28;24793;-75
2021/10/14 01:45:11;;;;;;;11.98;2.00;;;;;;;2.79;100.00;96795.53;5053681;28;25126;-75
2021/10/14 01:47:37;;;;;;;27.10;2.30;;;;;;;2.76;100.00;96793.84;5054601;28;24501;-75
2021/10/14 01:50:05;;;;;;;11.75;2.20;;;;;;;2.67;100.00;96799.97;5053465;28;24411;-75
2021/10/14 01:52:31;;;;;;;15.52;2.75;;;;;;;2.62;100.00;96794.06;5051927;28;24432;-75
2021/10/14 01:54:59;;;;;;;3.03;1.75;;;;;;;2.75;100.00;96786.22;5051650;28;24435;-75
2021/10/14 01:57:26;;;;;;;7.93;2.00;;;;;;;2.76;100.00;96788.72;5051438;28;24490;-76
2021/10/14 01:59:54;;;;;;;6.60;2.20;;;;;;;2.81;100.00;96799.72;5051645;28;22262;-76
2021/10/14 02:02:20;;;;;;;5.20;2.17;;;;;;;3.04;100.00;96796.81;5052365;28;24921;-75
2021/10/14 02:04:47;;;;;;;7.00;1.60;;;;;;;3.13;100.00;96799.22;5051801;28;24423;-75
2021/10/14 02:07:13;;;;;;;7.60;1.95;;;;;;;3.12;100.00;96805.19;5052180;28;24431;-75
2021/10/14 02:09:40;;;;;;;4.50;1.95;;;;;;;3.13;100.00;96795.81;5052648;28;24434;-75
2021/10/14 02:12:07;;;;;;;10.70;2.50;;;;;;;3.22;100.00;96805.03;5052254;28;24427;-75
2021/10/14 02:14:34;;;;;;;13.23;1.98;;;;;;;2.86;100.00;96807.34;5052072;28;24427;-75
2021/10/14 02:17:00;;;;;;;13.63;2.10;;;;;;;2.61;100.00;96810.28;5052606;28;24463;-75
2021/10/14 02:19:27;;;;;;;8.63;2.20;;;;;;;2.65;100.00;96798.28;5052393;28;24461;-75
2021/10/14 02:21:53;;;;;;;9.95;2.08;;;;;;;2.60;100.00;96805.19;5052468;28;24481;-75
2021/10/14 02:24:20;;;;;;;7.13;1.70;;;;;;;2.49;100.00;96797.69;5053098;28;24465;-75
2021/10/14 02:26:46;;;;;;;16.48;2.17;;;;;;;2.43;100.00;96805.44;5052715;28;24458;-75
2021/10/14 02:29:14;;;;;;;13.10;2.47;;;;;;;2.41;100.00;96800.34;5052688;28;24427;-75
2021/10/14 02:31:41;;;;;;;6.55;1.80;;;;;;;2.36;100.00;96798.69;5052611;28;24836;-75
2021/10/14 02:34:08;;;;;;;5.85;2.10;;;;;;;2.36;100.00;96802.09;5053703;28;24454;-75
2021/10/14 02:36:35;;;;;;;9.20;2.10;;;;;;;2.37;100.00;96793.59;5054031;28;24504;-75
2021/10/14 02:39:02;;;;;;;4.43;2.28;;;;;;;2.33;100.00;96802.13;5053420;28;24449;-75
2021/10/14 02:41:28;;;;;;;61.25;3.65;;;;;;;2.31;100.00;96798.78;5052219;28;24976;-75
2021/10/14 02:43:55;;;;;;;73.20;3.53;;;;;;;2.17;100.00;96798.94;5052225;28;24427;-75
2021/10/14 02:46:23;;;;;;;83.72;3.38;;;;;;;2.13;100.00;96799.03;5052312;28;24427;-75
2021/10/14 02:48:49;;;;;;;39.38;2.22;;;;;;;2.25;100.00;96793.75;5052234;28;25015;-75
2021/10/14 02:51:16;;;;;;;31.40;2.03;;;;;;;2.35;100.00;96795.31;5053411;28;24431;-75
2021/10/14 02:53:42;;;;;;;43.35;2.45;;;;;;;2.40;100.00;96798.63;5053608;28;24833;-75
2021/10/14 02:56:09;;;;;;;12.25;1.67;;;;;;;2.48;100.00;96790.84;5055074;28;24505;-75
2021/10/14 02:58:35;;;;;;;79.90;3.08;;;;;;;2.31;100.00;96803.06;5057889;28;24605;-75
2021/10/14 03:01:02;;;;;;;3.88;1.50;;;;;;;2.45;100.00;96813.06;5056798;28;24423;-75
2021/10/14 03:03:29;;;;;;;4.13;1.38;;;;;;;2.54;100.00;96798.44;5056424;28;24813;-75
2021/10/14 03:05:56;;;;;;;15.57;1.70;;;;;;;2.60;100.00;96802.63;5055781;28;24435;-75
2021/10/14 03:08:22;;;;;;;3.40;1.25;;;;;;;2.63;100.00;96800.00;5056101;28;24423;-75
2021/10/14 03:10:49;;;;;;;14.43;1.40;;;;;;;2.72;100.00;96806.72;5056769;28;24440;-75
2021/10/14 03:13:15;;;;;;;8.30;1.42;;;;;;;3.08;100.00;96808.69;5056991;28;24450;-76
2021/10/14 03:15:42;;;;;;;6.88;1.75;;;;;;;2.78;100.00;96809.16;5055964;28;24975;-76
2021/10/14 03:18:08;;;;;;;18.40;2.00;;;;;;;2.67;100.00;96814.47;5053267;28;24489;-77
2021/10/14 03:20:36;;;;;;;7.00;1.55;;;;;;;2.61;100.00;96814.53;5055324;28;24426;-75
2021/10/14 03:23:02;;;;;;;2.00;1.50;;;;;;;2.53;100.00;96818.94;5059536;28;24424;-75
2021/10/14 03:25:29;;;;;;;20.73;1.65;;;;;;;2.41;100.00;96815.69;5060822;28;24427;-76
2021/10/14 03:27:55;;;;;;;5.22;1.80;;;;;;;2.46;100.00;96812.22;5060061;28;24431;-75
2021/10/14 03:30:22;;;;;;;5.50;1.60;;;;;;;2.54;100.00;96812.94;5060123;28;24461;-76
2021/10/14 03:32:48;;;;;;;7.43;1.70;;;;;;;2.55;100.00;96806.94;5058844;28;24484;-75
2021/10/14 03:35:15;;;;;;;19.17;2.15;;;;;;;2.56;100.00;96816.31;5053129;28;24988;-76
2021/10/14 03:37:46;;;;;;;2.30;2.00;;;;;;;2.55;100.00;96814.63;5053864;28;24455;-76
2021/10/14 03:40:13;;;;;;;12.00;2.50;;;;;;;2.60;100.00;96817.97;5053726;28;24533;-76
2021/10/14 03:42:39;;;;;;;5.95;2.00;;;;;;;2.59;100.00;96814.56;5053274;28;24438;-76
2021/10/14 03:45:07;;;;;;;3.30;2.00;;;;;;;2.63;100.00;96821.34;5053112;28;24477;-76
2021/10/14 03:47:33;;;;;;;4.35;1.77;;;;;;;2.64;100.00;96811.94;5053242;28;24439;-76
2021/10/14 03:50:00;;;;;;;5.28;2.53;;;;;;;2.69;100.00;96806.75;5053318;28;24430;-76
2021/10/14 03:52:27;;;;;;;40.45;3.40;;;;;;;2.47;100.00;96814.75;5053505;28;24829;-76
2021/10/14 03:54:54;;;;;;;27.67;2.80;;;;;;;2.38;100.00;96802.94;5052617;28;24979;-76
2021/10/14 03:57:21;;;;;;;2.78;2.33;;;;;;;2.40;100.00;96813.13;5052735;28;24447;-76
2021/10/14 03:59:47;;;;;;;3.50;2.37;;;;;;;2.46;100.00;96827.56;5052952;28;24430;-76
2021/10/14 04:02:13;;;;;;;26.60;2.40;;;;;;;2.38;100.00;96820.00;5053143;28;24940;-76
2021/10/14 04:04:40;;;;;;;5.00;2.00;;;;;;;2.45;100.00;96819.03;5052459;28;24427;-76
2021/10/14 04:07:06;;;;;;;6.63;2.60;;;;;;;2.53;100.00;96824.88;5052390;28;24493;-76
2021/10/14 04:09:33;;;;;;;16.90;2.10;;;;;;;2.46;100.00;96825.84;5057555;28;24426;-76
2021/10/14 04:12:01;;;;;;;38.20;2.87;;;;;;;2.18;100.00;96827.91;5058392;28;24774;-76
2021/10/14 04:14:29;;;;;;;27.48;2.90;;;;;;;2.00;100.00;96825.59;5052893;28;24441;-77
2021/10/14 04:16:55;;;;;;;15.13;2.63;;;;;;;2.10;100.00;96834.84;5052147;28;24492;-77
2021/10/14 04:19:22;;;;;;;13.75;2.25;;;;;;;2.06;100.00;96838.28;5052113;28;24424;-76
2021/10/14 04:21:49;;;;;;;6.53;2.33;;;;;;;2.14;100.00;96832.22;5052156;28;24434;-76
2021/10/14 04:24:15;;;;;;;7.63;2.00;;;;;;;2.37;100.00;96838.72;5053272;28;24963;-76
2021/10/14 04:26:42;;;;;;;6.63;1.77;;;;;;;2.31;100.00;96839.69;5052226;28;24426;-76
2021/10/14 04:29:10;;;;;;;3.45;1.80;;;;;;;2.28;100.00;96846.53;5052265;28;24419;-77
2021/10/14 04:31:36;;;;;;;5.65;1.90;;;;;;;2.29;100.00;96838.00;5051948;28;24989;-76
2021/10/14 04:34:03;;;;;;;2.03;1.80;;;;;;;2.37;100.00;96844.72;5052381;28;24415;-76
2021/10/14 04:36:30;;;;;;;4.63;1.30;;;;;;;2.41;100.00;96843.81;5052941;28;24447;-76
2021/10/14 04:38:57;;;;;;;4.55;1.65;;;;;;;2.32;100.00;96838.81;5052735;28;24477;-76
2021/10/14 04:41:23;;;;;;;6.10;1.40;;;;;;;2.53;100.00;96845.34;5052200;28;25003;-77
2021/10/14 04:43:49;;;;;;;11.07;1.65;;;;;;;2.39;100.00;96837.84;5053973;28;24945;-76
2021/10/14 04:46:17;;;;;;;1.98;1.70;;;;;;;2.27;100.00;96843.16;5052662;28;24457;-77
2021/10/14 04:48:44;;;;;;;6.63;1.45;;;;;;;2.24;100.00;96837.22;5051964;28;24470;-76
2021/10/14 04:51:10;;;;;;;5.13;1.77;;;;;;;2.20;100.00;96828.75;5052249;28;24505;-76
2021/10/14 04:53:37;;;;;;;2.78;2.05;;;;;;;2.13;100.00;96825.41;5052136;28;24468;-76
2021/10/14 04:56:03;;;;;;;5.00;2.60;;;;;;;2.06;100.00;96826.38;5051429;28;24832;-76
2021/10/14 04:58:31;;;;;;;3.00;2.20;;;;;;;2.13;100.00;96830.53;5051984;28;24439;-76
2021/10/14 05:00:57;;;;;;;4.53;2.22;;;;;;;2.12;100.00;96828.84;5051798;28;24798;-77
2021/10/14 05:03:25;;;;;;;6.03;2.53;;;;;;;2.12;100.00;96831.41;5051775;28;24481;-76
2021/10/14 05:05:52;;;;;;;4.73;2.47;;;;;;;2.16;100.00;96833.06;5056189;28;24434;-76
2021/10/14 05:08:18;;;;;;;5.33;2.60;;;;;;;2.09;100.00;96828.88;5059677;28;24999;-76
2021/10/14 05:10:45;;;;;;;4.10;2.20;;;;;;;2.16;100.00;96830.50;5065710;28;24476;-76
2021/10/14 05:13:11;;;;;;;4.70;2.35;;;;;;;2.23;100.00;96832.97;5051570;28;24430;-76
2021/10/14 05:15:39;;;;;;;6.15;2.33;;;;;;;2.20;100.00;96831.31;5051165;28;24427;-76
2021/10/14 05:18:06;;;;;;;3.75;1.98;;;;;;;2.17;100.00;96829.63;5051037;28;24463;-76
2021/10/14 05:20:34;;;;;;;4.55;2.33;;;;;;;2.15;100.00;96822.84;5051472;28;24419;-76
2021/10/14 05:23:00;;;;;;;11.18;2.67;;;;;;;2.13;100.00;96822.88;5052323;28;24415;-76
2021/10/14 05:25:27;;;;;;;3.55;2.45;;;;;;;2.16;100.00;96822.81;5051758;28;24808;-75
2021/10/14 05:27:54;;;;;;;3.40;2.33;;;;;;;2.27;100.00;96827.81;5051365;28;24968;-77
2021/10/14 05:30:21;;;;;;;4.80;2.10;;;;;;;2.41;100.00;96815.69;5052433;28;24415;-77
2021/10/14 05:32:47;;;;;;;4.28;2.22;;;;;;;2.25;100.00;96826.13;5051871;28;24485;-77
2021/10/14 05:35:14;;;;;;;3.58;2.13;;;;;;;2.29;100.00;96822.66;5052209;28;24506;-77
2021/10/14 05:37:41;;;;;;;3.30;2.13;;;;;;;2.23;100.00;96831.28;5051473;28;24505;-76
2021/10/14 05:40:09;;;;;;;5.73;2.07;;;;;;;2.23;100.00;96825.31;5051108;28;24832;-72
2021/10/14 05:42:35;;;;;;;4.32;2.22;;;;;;;2.22;100.00;96821.03;5051295;28;24435;-77
2021/10/14 05:45:02;;;;;;;4.95;2.28;;;;;;;2.20;100.00;96822.78;5050296;28;24423;-76
2021/10/14 05:47:28;;;;;;;4.30;1.75;;;;;;;2.30;100.00;96821.78;5050513;28;24481;-76
2021/10/14 05:49:54;;;;;;;6.90;2.15;;;;;;;2.17;100.00;96828.78;5051321;28;24987;-76
2021/10/14 05:52:21;;;;;;;2.20;2.00;;;;;;;2.13;100.00;96833.09;5051126;28;24448;-76
2021/10/14 05:54:49;;;;;;;4.30;2.15;;;;;;;2.16;100.00;96827.94;5050554;28;24447;-76
2021/10/14 05:57:15;;;;;;;2.42;2.20;;;;;;;2.22;100.00;96821.03;5050772;28;24451;-77
2021/10/14 05:59:42;;;;;;;4.40;2.20;;;;;;;2.27;100.00;96829.53;5051589;28;24963;-76
2021/10/14 06:02:08;;;;;;;3.03;2.42;;;;;;;2.32;100.00;96831.13;5052776;28;24442;-76
2021/10/14 06:04:35;;;;;;;3.20;2.60;;;;;;;2.40;100.00;96833.59;5051360;28;24415;-77
2021/10/14 06:07:01;;;;;;;2.63;2.42;;;;;;;2.40;100.00;96829.31;5050950;28;25010;-76
2021/10/14 06:09:28;;;;;;;3.30;2.60;;;;;;;2.45;100.00;96821.59;5051203;28;24418;-76
2021/10/14 06:11:55;;;;;;;2.65;2.45;;;;;;;2.51;100.00;96824.06;5052031;28;24956;-77
2021/10/14 06:14:22;;;;;;;3.00;2.70;;;;;;;2.52;100.00;96818.09;5050932;28;24465;-76
2021/10/14 06:16:49;;;;;;;3.20;2.58;;;;;;;2.59;100.00;96812.00;5052128;28;24419;-76
2021/10/14 06:19:15;;;;;;;9.50;2.47;;;;;;;2.24;100.00;96812.50;5052449;28;24438;-76
2021/10/14 06:21:42;;;;;;;9.07;2.65;;;;;;;2.08;100.00;96824.66;5050541;28;24501;-76
2021/10/14 06:24:08;;;;;;;2.25;2.05;;;;;;;2.17;100.00;96826.22;5050285;28;24431;-76
2021/10/14 06:26:34;;;;;;;3.13;2.17;;;;;;;2.18;100.00;96823.63;5050332;28;24490;-76
2021/10/14 06:29:02;;;;;;;2.40;2.20;;;;;;;1.96;100.00;96822.22;5050507;28;24418;-76
2021/10/14 06:31:29;;;;;;;2.70;2.50;;;;;;;2.10;100.00;96824.63;5053435;28;24426;-76
2021/10/14 06:33:55;;;;;;;2.70;2.40;;;;;;;2.27;100.00;96825.25;5055279;28;25040;-76
2021/10/14 06:36:22;;;;;;;4.83;2.63;;;;;;;2.25;100.00;96826.13;5054551;28;24565;-76
2021/10/14 06:38:49;;;;;;;2.25;2.05;;;;;;;2.46;100.00;96823.28;5054394;28;24474;-76
2021/10/14 06:41:15;;;;;;;4.07;2.20;;;;;;;2.65;100.00;96824.69;5055609;28;24528;-76
2021/10/14 06:43:42;;;;;;;7.10;2.33;;;;;;;2.67;100.00;96814.47;5055905;28;24793;-76
2021/10/14 06:46:10;;;;;;;4.32;2.33;;;;;;;2.80;100.00;96818.50;5054994;28;24408;-76
2021/10/14 06:48:37;;;;;;;3.35;2.28;;;;;;;2.86;100.00;96820.16;5054141;28;24466;-77
2021/10/14 06:51:03;;;;;;;2.20;2.00;;;;;;;2.93;100.00;96814.06;5043558;28;24442;-76
2021/10/14 06:53:31;;;;;;;5.60;2.42;;;;;;;2.98;100.00;96819.94;5054399;28;24443;-77
2021/10/14 06:55:58;;;;;;;2.17;1.90;;;;;;;3.00;100.00;96817.34;5054852;28;24522;-77
2021/10/14 06:58:24;;;;;;;3.35;2.10;;;;;;;2.61;100.00;96825.63;5055828;28;24443;-77
2021/10/14 07:00:50;;;;;;;2.25;1.92;;;;;;;2.47;100.00;96827.53;5055417;28;24424;-76
2021/10/14 07:03:18;;;;;;;3.10;2.35;;;;;;;2.77;100.00;96825.38;5051424;28;24429;-76
2021/10/14 07:05:45;;;;;;;3.85;2.05;;;;;;;2.81;100.00;96829.59;5046035;28;24438;-76
2021/10/14 07:08:11;;;;;;;2.38;1.73;;;;;;;2.74;100.00;96830.53;5043618;28;24778;-77
2021/10/14 07:10:38;;;;;;;3.60;2.10;;;;;;;2.86;100.00;96822.69;5053856;28;24968;-77
2021/10/14 07:13:05;;;;;;;3.50;2.20;;;;;;;3.11;100.00;96818.84;5054780;28;24435;-76
2021/10/14 07:15:33;;;;;;;2.60;2.00;;;;;;;3.24;100.00;96822.06;5055822;28;24780;-76
2021/10/14 07:17:59;;;;;;;4.40;2.57;;;;;;;3.35;100.00;96821.88;5055988;28;25076;-77
2021/10/14 07:20:27;;;;;;;5.05;2.25;;;;;;;3.51;100.00;96822.44;5059083;28;24446;-77
2021/10/14 07:22:54;;;;;;;3.15;2.30;;;;;;;3.42;100.00;96836.28;5059475;28;24451;-77
2021/10/14 07:25:20;;;;;;;3.80;2.50;;;;;;;3.38;100.00;96834.63;5056472;28;24434;-77
2021/10/14 07:27:47;;;;;;;7.28;3.42;;;;;;;3.18;100.00;96840.06;5054495;28;24431;-77
2021/10/14 07:30:13;;;;;;;4.75;2.70;;;;;;;3.31;100.00;96838.19;5057279;28;24770;-77
2021/10/14 07:32:40;;;;;;;4.85;2.63;;;;;;;3.48;100.00;96838.69;5057262;28;24562;-77
2021/10/14 07:35:07;;;;;;;4.63;2.63;;;;;;;3.69;100.00;96839.19;5056778;28;24440;-79
2021/10/14 07:37:35;;;;;;;3.90;2.23;;;;;;;3.85;100.00;96833.75;5056410;28;24454;-77
2021/10/14 07:40:01;;;;;;;4.68;2.90;;;;;;;3.71;100.00;96830.63;5055160;28;24518;-77
2021/10/14 07:42:28;;;;;;;4.68;2.90;;;;;;;3.61;100.00;96835.06;5056484;28;24427;-77
2021/10/14 07:44:54;;;;;;;6.05;3.42;;;;;;;3.75;100.00;96837.38;5056993;28;24430;-78
2021/10/14 07:47:21;;;;;;;4.30;2.33;;;;;;;4.04;100.00;96843.63;5053459;28;24431;-76
2021/10/14 07:49:47;;;;;;;6.22;2.90;;;;;;;4.47;100.00;96847.88;5053829;28;24427;-77
2021/10/14 07:52:14;;;;;;;7.22;3.28;;;;;;;4.97;100.00;96843.31;5054233;28;24501;-75
2021/10/14 07:54:42;;;;;;;5.60;3.35;;;;;;;5.25;100.00;96844.38;5052922;28;24988;-77
2021/10/14 07:57:08;;;;;;;10.43;3.35;;;;;;;5.37;100.00;96843.22;5045638;28;24522;-77
2021/10/14 07:59:35;;;;;;;12.55;3.75;;;;;;;5.13;100.00;96841.25;5033426;28;24502;-76
2021/10/14 08:02:01;;;;;;;6.78;3.35;;;;;;;4.84;100.00;96838.50;5033062;28;24494;-76
2021/10/14 08:04:28;;;;;;;6.80;3.45;;;;;;;4.88;100.00;96848.69;5032887;28;25365;-77
2021/10/14 08:06:55;;;;;;;8.43;3.38;;;;;;;4.82;100.00;96837.69;5032817;28;24432;-74
2021/10/14 08:09:21;;;;;;;8.55;3.33;;;;;;;5.12;100.00;96844.69;5033290;28;24485;-76
2021/10/14 08:11:49;;;;;;;4.50;3.00;;;;;;;5.67;100.00;96840.72;5032910;28;24423;-77
2021/10/14 08:14:15;;;;;;;6.28;3.10;;;;;;;5.73;100.00;96840.59;5033096;28;24424;-77
2021/10/14 08:16:42;;;;;;;7.95;3.88;;;;;;;5.58;100.00;96850.38;5032618;28;24428;-76
2021/10/14 08:19:08;;;;;;;17.03;4.40;;;;;;;5.48;100.00;96843.78;5048663;28;24455;-76
2021/10/14 08:21:35;;;;;;;7.97;4.07;;;;;;;5.70;100.00;96850.94;5053138;28;24506;-76
2021/10/14 08:24:01;;;;;;;5.78;3.92;;;;;;;5.78;100.00;96847.31;5053432;28;24485;-76
2021/10/14 08:26:28;;;;;;;9.40;4.43;;;;;;;5.81;100.00;96846.34;5053104;28;24448;-77
2021/10/14 08:28:55;;;;;;;11.80;4.50;;;;;;;5.79;100.00;96846.41;5053451;28;24416;-77
2021/10/14 08:31:24;;;;;;;13.10;4.03;;;;;;;5.70;100.00;96844.06;5053102;28;24426;-77
2021/10/14 08:33:50;;;;;;;10.30;3.65;;;;;;;6.01;100.00;96840.72;5055626;28;24459;-77
2021/10/14 08:36:17;;;;;;;11.18;3.85;;;;;;;6.32;100.00;96843.25;5053578;28;24442;-76
2021/10/14 08:38:43;;;;;;;8.35;3.17;;;;;;;6.73;100.00;96836.88;5053122;28;24443;-75
2021/10/14 08:41:10;;;;;;;5.68;2.95;;;;;;;6.93;100.00;96838.00;5053696;28;24423;-77
2021/10/14 08:43:39;;;;;;;6.90;3.00;;;;;;;6.99;100.00;96841.22;5053816;28;24422;-76
2021/10/14 08:46:08;;;;;;;7.47;3.10;;;;;;;7.30;100.00;96842.81;5054146;28;24431;-75
2021/10/14 08:48:36;;;;;;;4.40;2.50;;;;;;;7.12;100.00;96838.25;5052125;28;24424;-76
2021/10/14 08:51:02;;;;;;;8.17;3.40;;;;;;;7.32;100.00;96841.03;5055889;28;24430;-77
2021/10/14 08:53:29;;;;;;;8.20;2.75;;;;;;;7.19;100.00;96843.19;5057713;28;24792;-76
2021/10/14 08:55:56;;;;;;;6.60;3.27;;;;;;;7.29;100.00;96835.97;5053600;28;24944;-75
2021/10/14 08:58:22;;;;;;;5.45;2.90;;;;;;;7.72;100.00;96837.97;5054128;28;24439;-77
2021/10/14 09:01:08;;;;;;;5.78;2.83;;;;;;;8.09;99.55;96828.09;5055327;28;24430;-77
2021/10/14 09:03:38;;;;;;;5.13;2.92;;;;;;;8.25;99.15;96832.63;5054836;28;24823;-76
2021/10/14 09:06:08;;;;;;;5.82;3.30;;;;;;;8.15;100.00;96828.69;5055732;28;24430;-77
2021/10/14 09:08:37;;;;;;;8.63;3.47;;;;;;;8.04;100.00;96827.41;5052478;28;24412;-75
2021/10/14 09:11:08;;;;;;;7.13;3.40;;;;;;;8.31;100.00;96823.84;5051939;28;24481;-75
2021/10/14 09:13:34;;;;;;;6.15;2.92;;;;;;;8.41;99.13;96824.34;5052784;28;24430;-76
2021/10/14 09:19:11;;;;;;;7.85;3.10;;;;;;;8.61;95.59;96818.47;5135953;27;24425;-74
2021/10/14 09:21:40;;;;;;;8.68;2.75;;;;;;;8.71;94.43;96817.19;5129775;27;24501;-74
2021/10/14 09:24:25;;;;;;;3.40;2.35;;;;;;;8.77;93.08;96814.38;5129491;28;24425;-73
2021/10/14 09:26:52;;;;;;;3.65;2.42;;;;;;;8.87;91.61;96818.28;5128990;27;24505;-75
2021/10/14 09:29:21;;;;;;;6.35;2.70;;;;;;;8.80;90.69;96814.25;5129454;27;24971;-74
2021/10/14 09:31:53;;;;;;;8.55;3.35;;;;;;;8.72;93.14;96811.13;5129501;27;20862;-74
2021/10/14 09:34:30;;;;;;;15.93;3.10;;;;;;;8.98;93.30;96810.13;5128880;27;24961;-76
2021/10/14 09:36:57;;;;;;;7.32;2.90;;;;;;;9.13;91.96;96812.09;5129405;27;24456;-75
2021/10/14 09:39:23;;;;;;;5.57;2.75;;;;;;;9.29;92.42;96809.69;5129418;27;24545;-75
2021/10/14 09:41:50;;;;;;;3.97;2.55;;;;;;;9.52;91.47;96803.56;5129234;27;24425;-76
2021/10/14 09:44:17;;;;;;;4.47;2.53;;;;;;;9.57;90.03;96803.41;5129284;27;20761;-76
2021/10/14 09:46:45;;;;;;;3.33;2.35;;;;;;;9.82;90.27;96810.94;5129393;27;20793;-76
2021/10/14 09:49:14;;;;;;;7.78;2.80;;;;;;;10.07;86.84;96803.78;5129569;27;24436;-75
2021/10/14 09:51:44;;;;;;;5.18;2.33;;;;;;;10.35;87.33;96797.41;5129923;27;20800;-76
2021/10/14 09:54:10;;;;;;;3.60;2.47;;;;;;;10.72;86.87;96787.94;5129655;27;20785;-75
2021/10/14 09:56:37;;;;;;;3.47;2.17;;;;;;;10.81;79.32;96790.91;5128826;27;24432;-75
2021/10/14 09:59:03;;;;;;;5.22;2.33;;;;;;;10.80;80.39;96788.41;5129436;27;24488;-75
2021/10/14 10:01:32;;;;;;;4.22;2.58;;;;;;;10.92;80.73;96787.81;5130015;27;20753;-75
2021/10/14 10:03:59;;;;;;;9.98;3.15;;;;;;;10.87;76.49;96792.41;5129032;27;24783;-75
2021/10/14 10:06:27;;;;;;;4.85;2.50;;;;;;;10.92;77.91;96792.16;5128441;27;24984;-75
2021/10/14 10:08:57;;;;;;;4.15;2.58;;;;;;;11.12;76.30;96789.44;5128742;27;24436;-75
2021/10/14 10:11:25;;;;;;;9.25;2.53;;;;;;;11.22;76.96;96797.63;5128578;27;24421;-75
2021/10/14 10:13:55;;;;;;;9.52;2.42;;;;;;;11.24;78.58;96786.28;5128952;27;24470;-74
2021/10/14 10:16:23;;;;;;;3.97;2.05;;;;;;;11.36;82.08;96779.63;5128398;27;24520;-77
2021/10/14 10:18:50;;;;;;;5.50;1.95;;;;;;;11.30;76.69;96787.72;5128601;27;24548;-76
2021/10/14 10:21:39;;;;;;;7.55;2.08;;;;;;;11.33;74.84;96785.81;5131801;27;20753;-76
2021/10/14 10:24:07;;;;;;;6.07;2.00;;;;;;;11.47;73.58;96786.88;5134345;27;24433;-75
2021/10/14 10:26:51;;;;;;;2.63;1.83;;;;;;;11.60;74.67;96780.13;5130907;27;24849;-74
2021/10/14 10:29:43;;;;;;;3.33;2.10;;;;;;;11.43;73.07;96781.00;5100229;28;24418;-76
2021/10/14 10:32:21;;;;;;;6.40;1.92;;;;;;;11.43;71.73;96778.41;5094057;28;24429;-76
2021/10/14 10:37:43;;;;;;;4.70;1.75;;;;;;;12.27;76.23;96783.63;5094303;28;24905;-75
2021/10/14 10:40:15;;;;;;;2.40;1.45;;;;;;;12.51;71.58;96779.72;5093578;28;20847;-76
2021/10/14 10:42:43;;;;;;;4.40;1.83;;;;;;;12.68;69.73;96775.34;5093765;28;24547;-75
2021/10/14 10:45:12;;;;;;;3.25;1.83;;;;;;;12.62;71.50;96779.13;5093235;28;24414;-76
2021/10/14 10:47:49;;;;;;;2.42;1.80;;;;;;;12.93;73.95;96780.03;5096756;28;24430;-76
2021/10/14 10:50:18;;;;;;;4.28;1.85;;;;;;;13.05;68.01;96771.53;5113868;28;24432;-76
2021/10/14 10:52:46;;;;;;;3.17;1.70;;;;;;;12.50;65.82;96772.00;5114925;28;24479;-77
2021/10/14 10:55:36;;;;;;;3.70;1.92;;;;;;;12.32;66.57;96766.03;5113801;28;24425;-75
2021/10/14 10:58:05;;;;;;;3.35;1.85;;;;;;;12.20;68.24;96771.88;5113489;28;24994;-75
2021/10/14 11:00:32;;;;;;;6.28;1.80;;;;;;;12.31;71.94;96772.13;5114523;28;24506;-77
2021/10/14 11:03:17;;;;;;;1.70;1.33;;;;;;;12.78;68.89;96761.75;5113938;28;24992;-76
2021/10/14 11:05:47;;;;;;;4.28;1.80;;;;;;;12.92;67.25;96763.59;5113241;28;24756;-76
2021/10/14 11:08:17;;;;;;;3.25;1.70;;;;;;;12.70;66.70;96763.94;5113488;28;24962;-76
2021/10/14 11:10:47;;;;;;;3.00;1.88;;;;;;;12.63;66.97;96759.16;5113232;28;24502;-75
2021/10/14 11:13:13;;;;;;;2.35;1.33;;;;;;;13.45;65.01;96761.47;5113657;28;24880;-75
2021/10/14 11:15:40;;;;;;;3.85;1.63;;;;;;;13.24;67.74;96750.56;5113754;28;24424;-76
2021/10/14 11:18:08;;;;;;;3.15;1.33;;;;;;;13.04;65.75;96751.66;5112827;28;24584;-76
2021/10/14 11:20:35;;;;;;;5.30;1.33;;;;;;;12.60;65.38;96752.38;5113927;28;24409;-75
2021/10/14 11:23:04;;;;;;;3.53;1.40;;;;;;;12.47;64.97;96753.97;5113781;27;24428;-76
2021/10/14 11:25:31;;;;;;;2.25;1.25;;;;;;;12.30;63.87;96747.94;5113372;28;24440;-77
2021/10/14 11:28:06;;;;;;;2.40;0.93;;;;;;;12.22;64.46;96742.31;5113216;28;24433;-77
2021/10/14 11:30:39;;;;;;;2.00;1.05;;;;;;;12.35;65.70;96738.16;5113291;28;24453;-77
2021/10/14 11:33:12;;;;;;;5.72;1.13;;;;;;;12.19;65.35;96733.84;5113076;28;24432;-76
2021/10/14 11:35:39;;;;;;;4.03;1.23;;;;;;;11.96;65.48;96719.50;5113065;28;24452;-79
2021/10/14 11:38:11;;;;;;;2.85;1.27;;;;;;;11.98;66.50;96725.47;5113549;28;24451;-76
2021/10/14 11:40:40;;;;;;;4.13;1.20;;;;;;;12.08;65.23;96724.03;5115118;28;24440;-78